sensor_id;sensor_type;location;lat;lon;timestamp;pressure;altitude;pressure_sealevel;temperature;humidity
50977;BME280;36992;48.200;12.418;2022-07-22T00:00:19;97118.69;;;25.32;47.06
50977;BME280;36992;48.200;12.418;2022-07-22T00:02:46;97113.97;;;25.29;46.76
50977;BME280;36992;48.200;12.418;2022-07-22T00:05:13;97117.91;;;25.28;47.35
50977;BME280;36992;48.200;12.418;2022-07-22T00:07:41;97111.56;;;25.27;46.86
50977;BME280;36992;48.200;12.418;2022-07-22T00:10:08;97117.06;;;25.24;47.08
50977;BME280;36992;48.200;12.418;2022-07-22T00:12:36;97112.28;;;25.21;47.07
50977;BME280;36992;48.200;12.418;2022-07-22T00:15:04;97112.28;;;25.21;47.57
50977;BME280;36992;48.200;12.418;2022-07-22T00:17:30;97104.81;;;25.17;47.89
50977;BME280;36992;48.200;12.418;2022-07-22T00:19:57;97102.38;;;25.12;47.52
50977;BME280;36992;48.200;12.418;2022-07-22T00:22:24;97093.28;;;25.08;47.53
50977;BME280;36992;48.200;12.418;2022-07-22T00:24:52;97091.69;;;25.07;47.93
50977;BME280;36992;48.200;12.418;2022-07-22T00:27:18;97093.22;;;25.01;48.44
50977;BME280;36992;48.200;12.418;2022-07-22T00:29:45;97090.81;;;24.96;47.78
50977;BME280;36992;48.200;12.418;2022-07-22T00:32:11;97088.81;;;24.92;47.84
50977;BME280;36992;48.200;12.418;2022-07-22T00:34:37;97087.59;;;24.90;47.96
50977;BME280;36992;48.200;12.418;2022-07-22T00:37:04;97086.03;;;24.89;47.77
50977;BME280;36992;48.200;12.418;2022-07-22T00:39:31;97091.13;;;24.87;47.78
50977;BME280;36992;48.200;12.418;2022-07-22T00:41:59;97084.03;;;24.89;47.98
50977;BME280;36992;48.200;12.418;2022-07-22T00:44:26;97087.56;;;24.86;47.86
50977;BME280;36992;48.200;12.418;2022-07-22T00:46:52;97087.56;;;24.86;47.63
50977;BME280;36992;48.200;12.418;2022-07-22T00:49:19;97089.53;;;24.86;47.40
50977;BME280;36992;48.200;12.418;2022-07-22T00:51:46;97087.56;;;24.86;47.12
50977;BME280;36992;48.200;12.418;2022-07-22T00:54:13;97085.19;;;24.85;47.19
50977;BME280;36992;48.200;12.418;2022-07-22T00:56:40;97089.94;;;24.84;47.46
50977;BME280;36992;48.200;12.418;2022-07-22T00:59:11;97093.88;;;24.87;46.81
50977;BME280;36992;48.200;12.418;2022-07-22T01:01:38;97086.75;;;24.82;47.55
50977;BME280;36992;48.200;12.418;2022-07-22T01:04:05;97078.03;;;24.80;47.38
50977;BME280;36992;48.200;12.418;2022-07-22T01:06:31;97077.63;;;24.78;47.61
50977;BME280;36992;48.200;12.418;2022-07-22T01:08:59;97075.63;;;24.75;47.94
50977;BME280;36992;48.200;12.418;2022-07-22T01:11:26;97081.09;;;24.71;48.18
50977;BME280;36992;48.200;12.418;2022-07-22T01:13:54;97081.06;;;24.68;48.30
50977;BME280;36992;48.200;12.418;2022-07-22T01:16:24;97070.75;;;24.61;48.00
50977;BME280;36992;48.200;12.418;2022-07-22T01:18:50;97072.22;;;24.51;48.37
50977;BME280;36992;48.200;12.418;2022-07-22T01:21:18;97072.16;;;24.47;47.90
50977;BME280;36992;48.200;12.418;2022-07-22T01:23:45;97076.06;;;24.43;48.42
50977;BME280;36992;48.200;12.418;2022-07-22T01:26:13;97070.16;;;24.41;48.39
50977;BME280;36992;48.200;12.418;2022-07-22T01:28:40;97072.91;;;24.41;48.49
50977;BME280;36992;48.200;12.418;2022-07-22T01:31:07;97067.41;;;24.41;48.48
50977;BME280;36992;48.200;12.418;2022-07-22T01:33:35;97068.53;;;24.39;48.35
50977;BME280;36992;48.200;12.418;2022-07-22T01:36:02;97075.22;;;24.38;49.01
50977;BME280;36992;48.200;12.418;2022-07-22T01:38:30;97069.72;;;24.38;49.16
50977;BME280;36992;48.200;12.418;2022-07-22T01:40:57;97063.38;;;24.34;48.78
50977;BME280;36992;48.200;12.418;2022-07-22T01:43:23;97065.69;;;24.32;49.04
50977;BME280;36992;48.200;12.418;2022-07-22T01:45:52;97071.22;;;24.32;48.58
50977;BME280;36992;48.200;12.418;2022-07-22T01:48:20;97075.94;;;24.32;48.81
50977;BME280;36992;48.200;12.418;2022-07-22T01:50:47;97070.03;;;24.33;49.24
50977;BME280;36992;48.200;12.418;2022-07-22T01:53:14;97066.50;;;24.33;48.54
50977;BME280;36992;48.200;12.418;2022-07-22T01:55:42;97063.38;;;24.34;48.03
50977;BME280;36992;48.200;12.418;2022-07-22T01:58:08;97061.78;;;24.33;48.55
50977;BME280;36992;48.200;12.418;2022-07-22T02:00:35;97062.59;;;24.34;48.17
50977;BME280;36992;48.200;12.418;2022-07-22T02:03:02;97058.66;;;24.35;48.06
50977;BME280;36992;48.200;12.418;2022-07-22T02:05:29;97058.28;;;24.36;48.32
50977;BME280;36992;48.200;12.418;2022-07-22T02:07:59;97053.19;;;24.38;48.49
50977;BME280;36992;48.200;12.418;2022-07-22T02:10:26;97052.38;;;24.34;48.83
50977;BME280;36992;48.200;12.418;2022-07-22T02:12:54;97057.88;;;24.34;48.29
50977;BME280;36992;48.200;12.418;2022-07-22T02:15:21;97051.53;;;24.30;48.41
50977;BME280;36992;48.200;12.418;2022-07-22T02:17:48;97047.97;;;24.30;48.72
50977;BME280;36992;48.200;12.418;2022-07-22T02:20:14;97047.19;;;24.29;48.33
50977;BME280;36992;48.200;12.418;2022-07-22T02:22:41;97049.94;;;24.29;48.35
50977;BME280;36992;48.200;12.418;2022-07-22T02:25:08;97052.72;;;24.29;48.35
50977;BME280;36992;48.200;12.418;2022-07-22T02:27:35;97053.47;;;24.30;48.11
50977;BME280;36992;48.200;12.418;2022-07-22T02:30:04;97053.13;;;24.31;48.09
50977;BME280;36992;48.200;12.418;2022-07-22T02:32:31;97046.03;;;24.30;47.95
50977;BME280;36992;48.200;12.418;2022-07-22T02:34:57;97052.72;;;24.29;48.14
50977;BME280;36992;48.200;12.418;2022-07-22T02:37:24;97055.47;;;24.29;48.27
50977;BME280;36992;48.200;12.418;2022-07-22T02:39:51;97053.88;;;24.28;48.00
50977;BME280;36992;48.200;12.418;2022-07-22T02:42:17;97044.00;;;24.27;48.07
50977;BME280;36992;48.200;12.418;2022-07-22T02:44:44;97050.69;;;24.26;48.01
50977;BME280;36992;48.200;12.418;2022-07-22T02:47:12;97047.94;;;24.26;47.83
50977;BME280;36992;48.200;12.418;2022-07-22T02:49:38;97054.22;;;24.23;47.80
50977;BME280;36992;48.200;12.418;2022-07-22T02:52:05;97053.75;;;24.21;47.76
50977;BME280;36992;48.200;12.418;2022-07-22T02:54:31;97049.44;;;24.20;47.97
50977;BME280;36992;48.200;12.418;2022-07-22T02:56:58;97054.94;;;24.20;48.27
50977;BME280;36992;48.200;12.418;2022-07-22T02:59:24;97050.59;;;24.19;48.27
50977;BME280;36992;48.200;12.418;2022-07-22T03:01:51;97062.78;;;24.18;47.98
50977;BME280;36992;48.200;12.418;2022-07-22T03:04:19;97055.34;;;24.18;48.13
50977;BME280;36992;48.200;12.418;2022-07-22T03:06:45;97063.97;;;24.17;48.46
50977;BME280;36992;48.200;12.418;2022-07-22T03:09:12;97060.41;;;24.16;48.43
50977;BME280;36992;48.200;12.418;2022-07-22T03:11:38;97063.53;;;24.15;47.87
50977;BME280;36992;48.200;12.418;2022-07-22T03:14:05;97060.00;;;24.14;48.40
50977;BME280;36992;48.200;12.418;2022-07-22T03:16:31;97058.78;;;24.11;48.49
50977;BME280;36992;48.200;12.418;2022-07-22T03:18:58;97063.06;;;24.09;48.35
50977;BME280;36992;48.200;12.418;2022-07-22T03:21:25;97068.56;;;24.09;48.54
50977;BME280;36992;48.200;12.418;2022-07-22T03:23:52;97068.50;;;24.05;48.82
50977;BME280;36992;48.200;12.418;2022-07-22T03:26:19;97066.47;;;24.02;48.75
50977;BME280;36992;48.200;12.418;2022-07-22T03:28:46;97062.16;;;24.01;48.77
50977;BME280;36992;48.200;12.418;2022-07-22T03:31:12;97066.06;;;24.00;48.88
50977;BME280;36992;48.200;12.418;2022-07-22T03:33:39;97064.91;;;24.01;48.82
50977;BME280;36992;48.200;12.418;2022-07-22T03:36:06;97068.81;;;24.00;48.17
50977;BME280;36992;48.200;12.418;2022-07-22T03:38:35;97065.34;;;24.03;48.35
50977;BME280;36992;48.200;12.418;2022-07-22T03:41:01;97067.66;;;24.01;48.64
50977;BME280;36992;48.200;12.418;2022-07-22T03:43:28;97063.72;;;24.02;48.47
50977;BME280;36992;48.200;12.418;2022-07-22T03:45:54;97068.44;;;24.02;48.73
50977;BME280;36992;48.200;12.418;2022-07-22T03:48:21;97068.44;;;24.02;48.46
50977;BME280;36992;48.200;12.418;2022-07-22T03:50:47;97068.81;;;24.00;48.76
50977;BME280;36992;48.200;12.418;2022-07-22T03:53:14;97063.69;;;23.98;48.31
50977;BME280;36992;48.200;12.418;2022-07-22T03:55:42;97073.91;;;23.98;48.41
50977;BME280;36992;48.200;12.418;2022-07-22T03:58:09;97076.22;;;23.96;48.38
50977;BME280;36992;48.200;12.418;2022-07-22T04:00:35;97073.47;;;23.96;48.82
50977;BME280;36992;48.200;12.418;2022-07-22T04:03:02;97065.59;;;23.94;48.28
50977;BME280;36992;48.200;12.418;2022-07-22T04:05:28;97061.28;;;23.93;48.53
50977;BME280;36992;48.200;12.418;2022-07-22T04:07:55;97064.41;;;23.92;48.54
50977;BME280;36992;48.200;12.418;2022-07-22T04:10:21;97062.81;;;23.91;48.90
50977;BME280;36992;48.200;12.418;2022-07-22T04:12:49;97063.59;;;23.91;48.54
50977;BME280;36992;48.200;12.418;2022-07-22T04:15:16;97064.34;;;23.88;48.51
50977;BME280;36992;48.200;12.418;2022-07-22T04:17:42;97063.53;;;23.88;48.72
50977;BME280;36992;48.200;12.418;2022-07-22T04:20:09;97061.16;;;23.86;48.45
50977;BME280;36992;48.200;12.418;2022-07-22T04:22:36;97061.16;;;23.86;48.43
50977;BME280;36992;48.200;12.418;2022-07-22T04:25:03;97060.38;;;23.85;49.06
50977;BME280;36992;48.200;12.418;2022-07-22T04:27:29;97059.56;;;23.85;48.76
50977;BME280;36992;48.200;12.418;2022-07-22T04:29:57;97064.72;;;23.87;48.79
50977;BME280;36992;48.200;12.418;2022-07-22T04:32:24;97059.56;;;23.85;48.95
50977;BME280;36992;48.200;12.418;2022-07-22T04:34:50;97061.91;;;23.83;49.29
50977;BME280;36992;48.200;12.418;2022-07-22T04:37:17;97061.09;;;23.82;49.05
50977;BME280;36992;48.200;12.418;2022-07-22T04:39:43;97064.25;;;23.81;49.24
50977;BME280;36992;48.200;12.418;2022-07-22T04:42:10;97061.88;;;23.79;48.94
50977;BME280;36992;48.200;12.418;2022-07-22T04:44:36;97063.44;;;23.80;48.84
50977;BME280;36992;48.200;12.418;2022-07-22T04:47:04;97061.50;;;23.81;49.24
50977;BME280;36992;48.200;12.418;2022-07-22T04:49:31;97067.38;;;23.79;49.26
50977;BME280;36992;48.200;12.418;2022-07-22T04:51:57;97067.38;;;23.79;49.06
50977;BME280;36992;48.200;12.418;2022-07-22T04:54:24;97064.63;;;23.79;49.39
50977;BME280;36992;48.200;12.418;2022-07-22T04:56:50;97062.63;;;23.80;48.88
50977;BME280;36992;48.200;12.418;2022-07-22T04:59:17;97070.13;;;23.79;49.58
50977;BME280;36992;48.200;12.418;2022-07-22T05:01:43;97062.22;;;23.78;49.93
50977;BME280;36992;48.200;12.418;2022-07-22T05:04:11;97068.09;;;23.76;49.74
50977;BME280;36992;48.200;12.418;2022-07-22T05:06:38;97068.44;;;23.71;49.86
50977;BME280;36992;48.200;12.418;2022-07-22T05:09:04;97062.09;;;23.67;49.09
50977;BME280;36992;48.200;12.418;2022-07-22T05:11:31;97050.66;;;23.65;49.36
50977;BME280;36992;48.200;12.418;2022-07-22T05:13:58;97056.94;;;23.65;50.36
50977;BME280;36992;48.200;12.418;2022-07-22T05:16:24;97055.00;;;23.66;50.92
50977;BME280;36992;48.200;12.418;2022-07-22T05:18:51;97055.00;;;23.66;49.75
50977;BME280;36992;48.200;12.418;2022-07-22T05:21:19;97047.97;;;23.68;50.37
50977;BME280;36992;48.200;12.418;2022-07-22T05:23:45;97049.56;;;23.69;50.16
50977;BME280;36992;48.200;12.418;2022-07-22T05:26:12;97054.69;;;23.71;50.06
50977;BME280;36992;48.200;12.418;2022-07-22T05:28:38;97060.59;;;23.73;49.75
50977;BME280;36992;48.200;12.418;2022-07-22T05:31:05;97066.16;;;23.77;49.98
50977;BME280;36992;48.200;12.418;2022-07-22T05:33:31;97061.06;;;23.79;50.06
50977;BME280;36992;48.200;12.418;2022-07-22T05:35:58;97062.28;;;23.81;50.32
50977;BME280;36992;48.200;12.418;2022-07-22T05:38:25;97058.78;;;23.84;50.29
50977;BME280;36992;48.200;12.418;2022-07-22T05:40:52;97061.53;;;23.84;50.60
50977;BME280;36992;48.200;12.418;2022-07-22T05:43:19;97060.38;;;23.85;50.59
50977;BME280;36992;48.200;12.418;2022-07-22T05:45:45;97058.41;;;23.86;50.58
50977;BME280;36992;48.200;12.418;2022-07-22T05:48:12;97053.31;;;23.84;50.68
50977;BME280;36992;48.200;12.418;2022-07-22T05:50:38;97057.22;;;23.83;50.46
50977;BME280;36992;48.200;12.418;2022-07-22T05:53:05;97063.50;;;23.84;52.08
50977;BME280;36992;48.200;12.418;2022-07-22T05:55:33;97056.03;;;23.84;51.33
50977;BME280;36992;48.200;12.418;2022-07-22T05:57:59;97058.34;;;23.82;52.71
50977;BME280;36992;48.200;12.418;2022-07-22T06:00:26;97061.91;;;23.83;52.51
50977;BME280;36992;48.200;12.418;2022-07-22T06:02:52;97055.59;;;23.82;51.80
50977;BME280;36992;48.200;12.418;2022-07-22T06:05:19;97059.16;;;23.83;52.52
50977;BME280;36992;48.200;12.418;2022-07-22T06:07:46;97061.09;;;23.82;53.03
50977;BME280;36992;48.200;12.418;2022-07-22T06:10:12;97065.84;;;23.82;52.11
50977;BME280;36992;48.200;12.418;2022-07-22T06:12:40;97060.75;;;23.84;52.98
50977;BME280;36992;48.200;12.418;2022-07-22T06:15:07;97057.22;;;23.83;52.62
50977;BME280;36992;48.200;12.418;2022-07-22T06:17:34;97061.16;;;23.86;53.32
50977;BME280;36992;48.200;12.418;2022-07-22T06:20:01;97065.13;;;23.89;53.16
50977;BME280;36992;48.200;12.418;2022-07-22T06:22:28;97061.63;;;23.92;53.83
50977;BME280;36992;48.200;12.418;2022-07-22T06:24:54;97052.22;;;23.93;53.55
50977;BME280;36992;48.200;12.418;2022-07-22T06:27:21;97056.56;;;23.94;54.66
50977;BME280;36992;48.200;12.418;2022-07-22T06:29:48;97058.94;;;23.95;53.00
50977;BME280;36992;48.200;12.418;2022-07-22T06:32:15;97055.81;;;23.97;55.24
50977;BME280;36992;48.200;12.418;2022-07-22T06:34:41;97050.72;;;23.99;53.59
50977;BME280;36992;48.200;12.418;2022-07-22T06:37:08;97060.19;;;24.02;53.32
50977;BME280;36992;48.200;12.418;2022-07-22T06:39:35;97050.41;;;24.04;55.28
50977;BME280;36992;48.200;12.418;2022-07-22T06:42:02;97057.16;;;24.07;55.00
50977;BME280;36992;48.200;12.418;2022-07-22T06:44:28;97054.00;;;24.08;53.21
50977;BME280;36992;48.200;12.418;2022-07-22T06:46:56;97056.03;;;24.11;54.87
50977;BME280;36992;48.200;12.418;2022-07-22T06:49:23;97050.94;;;24.14;55.07
50977;BME280;36992;48.200;12.418;2022-07-22T06:51:49;97045.47;;;24.17;53.08
50977;BME280;36992;48.200;12.418;2022-07-22T06:54:16;97047.50;;;24.20;55.32
50977;BME280;36992;48.200;12.418;2022-07-22T06:56:42;97053.03;;;24.24;55.79
50977;BME280;36992;48.200;12.418;2022-07-22T06:59:09;97049.50;;;24.27;53.91
50977;BME280;36992;48.200;12.418;2022-07-22T07:01:35;97052.34;;;24.31;55.42
50977;BME280;36992;48.200;12.418;2022-07-22T07:04:03;97050.84;;;24.37;53.86
50977;BME280;36992;48.200;12.418;2022-07-22T07:06:30;97054.78;;;24.39;55.09
50977;BME280;36992;48.200;12.418;2022-07-22T07:08:56;97044.59;;;24.44;54.27
50977;BME280;36992;48.200;12.418;2022-07-22T07:11:24;97044.63;;;24.47;54.51
50977;BME280;36992;48.200;12.418;2022-07-22T07:13:50;97043.91;;;24.50;54.20
50977;BME280;36992;48.200;12.418;2022-07-22T07:16:17;97038.44;;;24.54;54.02
50977;BME280;36992;48.200;12.418;2022-07-22T07:18:43;97034.13;;;24.57;53.14
50977;BME280;36992;48.200;12.418;2022-07-22T07:21:11;97034.16;;;24.60;52.30
50977;BME280;36992;48.200;12.418;2022-07-22T07:23:38;97036.97;;;24.64;53.71
50977;BME280;36992;48.200;12.418;2022-07-22T07:26:05;97034.25;;;24.68;53.30
50977;BME280;36992;48.200;12.418;2022-07-22T07:28:31;97042.16;;;24.73;54.62
50977;BME280;36992;48.200;12.418;2022-07-22T07:30:58;97040.22;;;24.77;54.89
50977;BME280;36992;48.200;12.418;2022-07-22T07:33:24;97039.13;;;24.82;54.40
50977;BME280;36992;48.200;12.418;2022-07-22T07:35:51;97032.84;;;24.85;53.51
50977;BME280;36992;48.200;12.418;2022-07-22T07:38:19;97036.84;;;24.91;54.31
50977;BME280;36992;48.200;12.418;2022-07-22T07:40:46;97034.91;;;24.95;54.46
50977;BME280;36992;48.200;12.418;2022-07-22T07:43:12;97038.09;;;25.01;53.53
50977;BME280;36992;48.200;12.418;2022-07-22T07:45:39;97033.06;;;25.07;52.93
50977;BME280;36992;48.200;12.418;2022-07-22T07:48:06;97029.94;;;25.12;53.64
50977;BME280;36992;48.200;12.418;2022-07-22T07:50:32;97031.97;;;25.18;52.33
50977;BME280;36992;48.200;12.418;2022-07-22T07:52:59;97021.75;;;25.23;53.92
50977;BME280;36992;48.200;12.418;2022-07-22T07:55:27;97023.38;;;25.31;53.04
50977;BME280;36992;48.200;12.418;2022-07-22T07:57:54;97019.47;;;25.36;52.78
50977;BME280;36992;48.200;12.418;2022-07-22T08:00:22;97021.13;;;25.44;51.86
50977;BME280;36992;48.200;12.418;2022-07-22T08:02:49;97025.47;;;25.49;52.73
50977;BME280;36992;48.200;12.418;2022-07-22T08:05:16;97019.66;;;25.54;52.39
50977;BME280;36992;48.200;12.418;2022-07-22T08:07:44;97015.72;;;25.58;52.17
50977;BME280;36992;48.200;12.418;2022-07-22T08:10:10;97020.06;;;25.63;52.67
50977;BME280;36992;48.200;12.418;2022-07-22T08:12:38;97020.13;;;25.70;52.78
50977;BME280;36992;48.200;12.418;2022-07-22T08:15:06;97017.00;;;25.76;52.52
50977;BME280;36992;48.200;12.418;2022-07-22T08:17:33;97011.50;;;25.83;51.73
50977;BME280;36992;48.200;12.418;2022-07-22T08:20:00;97017.44;;;25.85;52.14
50977;BME280;36992;48.200;12.418;2022-07-22T08:22:26;97021.41;;;25.88;52.46
50977;BME280;36992;48.200;12.418;2022-07-22T08:24:53;97020.25;;;25.92;52.50
50977;BME280;36992;48.200;12.418;2022-07-22T08:27:20;97012.78;;;25.96;52.45
50977;BME280;36992;48.200;12.418;2022-07-22T08:29:48;97024.63;;;26.04;52.55
50977;BME280;36992;48.200;12.418;2022-07-22T08:32:14;97016.34;;;26.08;52.54
50977;BME280;36992;48.200;12.418;2022-07-22T08:34:41;97007.72;;;26.17;52.51
50977;BME280;36992;48.200;12.418;2022-07-22T08:37:08;97010.94;;;26.22;52.14
50977;BME280;36992;48.200;12.418;2022-07-22T08:39:35;97008.19;;;26.30;52.53
50977;BME280;36992;48.200;12.418;2022-07-22T08:42:02;97012.16;;;26.36;52.11
50977;BME280;36992;48.200;12.418;2022-07-22T08:44:29;97008.22;;;26.44;51.72
50977;BME280;36992;48.200;12.418;2022-07-22T08:46:58;97005.09;;;26.53;51.90
50977;BME280;36992;48.200;12.418;2022-07-22T08:49:24;97006.66;;;26.58;51.72
50977;BME280;36992;48.200;12.418;2022-07-22T08:51:51;97004.72;;;26.65;51.95
50977;BME280;36992;48.200;12.418;2022-07-22T08:54:17;97007.47;;;26.73;51.82
50977;BME280;36992;48.200;12.418;2022-07-22T08:56:46;96995.66;;;26.83;50.26
50977;BME280;36992;48.200;12.418;2022-07-22T08:59:12;96986.19;;;26.88;51.25
50977;BME280;36992;48.200;12.418;2022-07-22T09:02:05;96989.38;;;27.04;50.44
50977;BME280;36992;48.200;12.418;2022-07-22T09:04:32;96982.28;;;27.03;51.50
50977;BME280;36992;48.200;12.418;2022-07-22T09:07:23;96988.56;;;27.15;50.42
50977;BME280;36992;48.200;12.418;2022-07-22T09:09:50;96980.69;;;27.17;50.00
50977;BME280;36992;48.200;12.418;2022-07-22T09:12:16;96994.13;;;27.22;49.90
50977;BME280;36992;48.200;12.418;2022-07-22T09:14:44;96986.19;;;27.28;49.76
50977;BME280;36992;48.200;12.418;2022-07-22T09:17:28;96983.41;;;27.39;50.20
50977;BME280;36992;48.200;12.418;2022-07-22T09:19:55;96988.56;;;27.40;49.91
50977;BME280;36992;48.200;12.418;2022-07-22T09:22:34;96980.63;;;27.53;49.52
50977;BME280;36992;48.200;12.418;2022-07-22T09:25:23;96980.63;;;27.60;49.63
50977;BME280;36992;48.200;12.418;2022-07-22T09:27:52;96983.00;;;27.62;48.96
50977;BME280;36992;48.200;12.418;2022-07-22T09:30:19;96981.41;;;27.68;48.09
50977;BME280;36992;48.200;12.418;2022-07-22T09:32:48;96986.13;;;27.75;47.75
50977;BME280;36992;48.200;12.418;2022-07-22T09:35:15;96975.84;;;27.79;48.02
50977;BME280;36992;48.200;12.418;2022-07-22T09:37:48;96980.53;;;27.90;46.88
50977;BME280;36992;48.200;12.418;2022-07-22T09:40:17;96973.41;;;27.92;46.68
50977;BME280;36992;48.200;12.418;2022-07-22T09:42:45;96961.16;;;27.97;46.92
50977;BME280;36992;48.200;12.418;2022-07-22T09:45:12;96971.00;;;28.01;46.34
50977;BME280;36992;48.200;12.418;2022-07-22T09:47:40;96968.56;;;28.11;45.12
50977;BME280;36992;48.200;12.418;2022-07-22T09:50:15;96970.91;;;28.20;44.51
50977;BME280;36992;48.200;12.418;2022-07-22T09:52:42;96963.03;;;28.22;44.15
50977;BME280;36992;48.200;12.418;2022-07-22T09:55:09;96958.66;;;28.28;43.14
50977;BME280;36992;48.200;12.418;2022-07-22T09:57:36;96962.16;;;28.32;43.56
50977;BME280;36992;48.200;12.418;2022-07-22T10:00:04;96951.03;;;28.39;44.31
50977;BME280;36992;48.200;12.418;2022-07-22T10:02:33;96946.63;;;28.46;43.12
50977;BME280;36992;48.200;12.418;2022-07-22T10:05:03;96937.91;;;28.51;42.92
50977;BME280;36992;48.200;12.418;2022-07-22T10:07:31;96940.63;;;28.58;44.43
50977;BME280;36992;48.200;12.418;2022-07-22T10:09:59;96933.44;;;28.64;43.46
50977;BME280;36992;48.200;12.418;2022-07-22T10:12:26;96927.06;;;28.71;41.89
50977;BME280;36992;48.200;12.418;2022-07-22T10:14:54;96924.25;;;28.78;42.90
50977;BME280;36992;48.200;12.418;2022-07-22T10:17:20;96924.19;;;28.86;42.91
50977;BME280;36992;48.200;12.418;2022-07-22T10:19:47;96921.34;;;28.93;42.03
50977;BME280;36992;48.200;12.418;2022-07-22T10:22:54;96920.03;;;29.08;43.66
50977;BME280;36992;48.200;12.418;2022-07-22T10:25:22;96925.56;;;29.12;43.01
50977;BME280;36992;48.200;12.418;2022-07-22T10:27:52;96917.16;;;29.19;41.10
50977;BME280;36992;48.200;12.418;2022-07-22T10:30:20;96920.28;;;29.25;42.21
50977;BME280;36992;48.200;12.418;2022-07-22T10:33:05;96919.31;;;29.39;42.16
50977;BME280;36992;48.200;12.418;2022-07-22T10:35:33;96909.03;;;29.40;40.56
50977;BME280;36992;48.200;12.418;2022-07-22T10:38:04;96921.59;;;29.52;40.91
50977;BME280;36992;48.200;12.418;2022-07-22T10:40:32;96911.25;;;29.56;40.84
50977;BME280;36992;48.200;12.418;2022-07-22T10:43:12;96914.28;;;29.65;40.34
50977;BME280;36992;48.200;12.418;2022-07-22T10:45:47;96906.28;;;29.74;39.67
50977;BME280;36992;48.200;12.418;2022-07-22T10:48:15;96908.94;;;29.82;38.98
50977;BME280;36992;48.200;12.418;2022-07-22T10:50:45;96913.19;;;29.90;38.88
50977;BME280;36992;48.200;12.418;2022-07-22T10:53:15;96900.81;;;29.98;40.67
50977;BME280;36992;48.200;12.418;2022-07-22T10:56:05;96910.53;;;30.14;41.06
50977;BME280;36992;48.200;12.418;2022-07-22T10:58:45;96904.50;;;30.19;39.29
50977;BME280;36992;48.200;12.418;2022-07-22T11:01:14;96905.31;;;30.20;37.11
50977;BME280;36992;48.200;12.418;2022-07-22T11:03:43;96902.47;;;30.23;35.31
50977;BME280;36992;48.200;12.418;2022-07-22T11:06:18;96900.38;;;30.31;38.88
50977;BME280;36992;48.200;12.418;2022-07-22T11:08:49;96892.00;;;30.35;36.62
50977;BME280;36992;48.200;12.418;2022-07-22T11:11:16;96900.69;;;30.37;36.50
50977;BME280;36992;48.200;12.418;2022-07-22T11:13:43;96894.28;;;30.40;35.65
50977;BME280;36992;48.200;12.418;2022-07-22T11:16:18;96887.03;;;30.46;36.08
50977;BME280;36992;48.200;12.418;2022-07-22T11:18:47;96884.22;;;30.50;36.75
50977;BME280;36992;48.200;12.418;2022-07-22T11:21:15;96884.16;;;30.53;34.82
50977;BME280;36992;48.200;12.418;2022-07-22T11:23:43;96886.44;;;30.59;35.23
50977;BME280;36992;48.200;12.418;2022-07-22T11:26:14;96879.94;;;30.69;35.29
50977;BME280;36992;48.200;12.418;2022-07-22T11:28:42;96879.47;;;30.74;33.86
50977;BME280;36992;48.200;12.418;2022-07-22T11:31:10;96876.22;;;30.79;33.88
50977;BME280;36992;48.200;12.418;2022-07-22T11:33:36;96873.38;;;30.83;34.01
50977;BME280;36992;48.200;12.418;2022-07-22T11:36:04;96872.88;;;30.88;34.29
50977;BME280;36992;48.200;12.418;2022-07-22T11:38:45;96861.56;;;30.99;35.36
50977;BME280;36992;48.200;12.418;2022-07-22T11:41:14;96861.91;;;31.01;35.06
50977;BME280;36992;48.200;12.418;2022-07-22T11:43:43;96862.22;;;31.07;35.31
50977;BME280;36992;48.200;12.418;2022-07-22T11:46:09;96859.72;;;31.13;34.76
50977;BME280;36992;48.200;12.418;2022-07-22T11:48:36;96865.13;;;31.20;33.17
50977;BME280;36992;48.200;12.418;2022-07-22T11:51:04;96857.84;;;31.26;32.79
50977;BME280;36992;48.200;12.418;2022-07-22T11:53:32;96849.06;;;31.31;32.65
50977;BME280;36992;48.200;12.418;2022-07-22T11:55:59;96851.69;;;31.39;32.80
50977;BME280;36992;48.200;12.418;2022-07-22T11:58:35;96853.81;;;31.51;33.59
50977;BME280;36992;48.200;12.418;2022-07-22T12:01:03;96847.03;;;31.52;32.28
50977;BME280;36992;48.200;12.418;2022-07-22T12:03:32;96853.66;;;31.58;31.15
50977;BME280;36992;48.200;12.418;2022-07-22T12:05:59;96849.97;;;31.65;31.47
50977;BME280;36992;48.200;12.418;2022-07-22T12:08:26;96838.66;;;31.72;30.58
50977;BME280;36992;48.200;12.418;2022-07-22T12:10:55;96841.75;;;31.78;31.15
50977;BME280;36992;48.200;12.418;2022-07-22T12:13:22;96842.41;;;31.82;33.01
50977;BME280;36992;48.200;12.418;2022-07-22T12:15:54;96834.38;;;31.88;31.23
50977;BME280;36992;48.200;12.418;2022-07-22T12:18:22;96831.84;;;31.94;30.83
50977;BME280;36992;48.200;12.418;2022-07-22T12:20:50;96830.97;;;31.97;30.48
50977;BME280;36992;48.200;12.418;2022-07-22T12:23:17;96827.34;;;32.00;31.34
50977;BME280;36992;48.200;12.418;2022-07-22T12:25:51;96830.28;;;32.09;32.60
50977;BME280;36992;48.200;12.418;2022-07-22T12:28:17;96823.88;;;32.12;31.13
50977;BME280;36992;48.200;12.418;2022-07-22T12:30:44;96824.59;;;32.16;30.21
50977;BME280;36992;48.200;12.418;2022-07-22T12:33:14;96820.06;;;32.23;31.39
50977;BME280;36992;48.200;12.418;2022-07-22T12:35:40;96820.41;;;32.25;30.14
50977;BME280;36992;48.200;12.418;2022-07-22T12:38:08;96825.44;;;32.30;31.92
50977;BME280;36992;48.200;12.418;2022-07-22T12:40:35;96818.13;;;32.36;31.08
50977;BME280;36992;48.200;12.418;2022-07-22T12:43:04;96817.97;;;32.43;30.98
50977;BME280;36992;48.200;12.418;2022-07-22T12:45:32;96817.03;;;32.50;30.44
50977;BME280;36992;48.200;12.418;2022-07-22T12:48:06;96817.50;;;32.62;31.54
50977;BME280;36992;48.200;12.418;2022-07-22T12:50:36;96815.00;;;32.67;30.88
50977;BME280;36992;48.200;12.418;2022-07-22T12:53:04;96806.09;;;32.73;29.79